Time;durP1;ratioP1;P1;durP2;ratioP2;P2;SDS_P1;SDS_P2;PMS_P1;PMS_P2;Temp;Humidity;BMP_temperature;BMP_pressure;BME280_temperature;BME280_humidity;BME280_pressure;Samples;Min_cycle;Max_cycle;Signal;HPM_P1;HPM_P2
2021/04/01 00:00:36;;;;;;;40.55;21.95;;;;;;;;;;4330102;33;20144;-71
2021/04/01 00:03:01;;;;;;;40.60;21.70;;;;;;;;;;4330807;33;20166;-68
2021/04/01 00:05:27;;;;;;;39.95;21.92;;;;;;;;;;4330464;33;20132;-69
2021/04/01 00:07:53;;;;;;;40.58;22.80;;;;;;;;;;4330790;33;20207;-68
2021/04/01 00:10:20;;;;;;;42.42;21.42;;;;;;;;;;4330949;33;20124;-69
2021/04/01 00:12:45;;;;;;;42.53;21.05;;;;;;;;;;4331849;33;20791;-71
2021/04/01 00:15:11;;;;;;;41.85;22.45;;;;;;;;;;4329179;33;20156;-69
2021/04/01 00:17:38;;;;;;;50.95;24.05;;;;;;;;;;4330753;33;20190;-71
2021/04/01 00:20:04;;;;;;;43.55;21.92;;;;;;;;;;4330929;33;20133;-71
2021/04/01 00:22:29;;;;;;;43.60;23.85;;;;;;;;;;4332005;33;20152;-71
2021/04/01 00:24:55;;;;;;;46.03;26.37;;;;;;;;;;4331993;33;20166;-70
2021/04/01 00:27:20;;;;;;;43.90;21.37;;;;;;;;;;4331694;33;20233;-70
2021/04/01 00:29:45;;;;;;;48.47;23.27;;;;;;;;;;4330801;33;20167;-70
2021/04/01 00:32:10;;;;;;;45.08;23.12;;;;;;;;;;4332039;33;20267;-70
2021/04/01 00:34:35;;;;;;;46.60;25.65;;;;;;;;;;4331999;33;20287;-70
2021/04/01 00:37:00;;;;;;;48.85;23.58;;;;;;;;;;4330209;33;20147;-71
2021/04/01 00:39:25;;;;;;;43.15;23.95;;;;;;;;;;4330062;33;20249;-68
2021/04/01 00:41:51;;;;;;;47.30;24.48;;;;;;;;;;4330659;33;20620;-69
2021/04/01 00:44:17;;;;;;;51.50;25.15;;;;;;;;;;4331228;33;20132;-70
2021/04/01 00:46:45;;;;;;;42.08;21.70;;;;;;;;;;4316983;33;20230;-70
2021/04/01 00:49:10;;;;;;;44.53;20.92;;;;;;;;;;4320397;33;20175;-70
2021/04/01 00:51:35;;;;;;;44.65;22.33;;;;;;;;;;4318645;33;20644;-70
2021/04/01 00:54:00;;;;;;;46.47;21.92;;;;;;;;;;4320149;33;20136;-69
2021/04/01 00:56:26;;;;;;;42.75;21.73;;;;;;;;;;4305496;33;20195;-69
2021/04/01 00:58:52;;;;;;;47.80;21.37;;;;;;;;;;4318533;33;20144;-70
2021/04/01 01:03:58;;;;;;;43.30;21.87;;;;;;;;;;4319227;33;20276;-70
2021/04/01 01:06:23;;;;;;;44.00;22.20;;;;;;;;;;4318804;33;20143;-70
2021/04/01 01:08:48;;;;;;;41.95;21.62;;;;;;;;;;4320038;33;20140;-71
2021/04/01 01:11:13;;;;;;;44.88;21.52;;;;;;;;;;4318749;33;20140;-71
2021/04/01 01:13:39;;;;;;;43.83;20.25;;;;;;;;;;4332113;33;20190;-68
2021/04/01 01:16:04;;;;;;;42.30;19.70;;;;;;;;;;4323037;33;20151;-71
2021/04/01 01:18:29;;;;;;;40.88;20.65;;;;;;;;;;4319878;33;20136;-70
2021/04/01 01:20:58;;;;;;;42.27;20.17;;;;;;;;;;4319916;33;20152;-71
2021/04/01 01:23:25;;;;;;;42.75;21.00;;;;;;;;;;4304489;33;20652;-70
2021/04/01 01:25:50;;;;;;;42.17;21.00;;;;;;;;;;4317794;33;20617;-70
2021/04/01 01:28:15;;;;;;;43.58;21.15;;;;;;;;;;4317924;33;20172;-69
2021/04/01 01:30:40;;;;;;;46.42;21.12;;;;;;;;;;4319690;33;20428;-70
2021/04/01 01:33:06;;;;;;;44.58;21.70;;;;;;;;;;4329994;33;20155;-69
2021/04/01 01:35:33;;;;;;;43.63;21.23;;;;;;;;;;4319648;33;20175;-70
2021/04/01 01:37:59;;;;;;;42.83;20.35;;;;;;;;;;4310641;33;20272;-70
2021/04/01 01:40:25;;;;;;;44.05;20.70;;;;;;;;;;4319560;33;20200;-70
2021/04/01 01:42:51;;;;;;;45.63;20.85;;;;;;;;;;4319527;33;20156;-70
2021/04/01 01:45:17;;;;;;;40.58;18.70;;;;;;;;;;4323732;33;20165;-69
2021/04/01 01:47:42;;;;;;;44.30;19.52;;;;;;;;;;4333428;33;20200;-69
2021/04/01 01:50:09;;;;;;;43.20;20.23;;;;;;;;;;4333857;33;20170;-69
2021/04/01 01:52:35;;;;;;;40.75;19.10;;;;;;;;;;4331786;33;20164;-69
2021/04/01 01:55:00;;;;;;;43.95;20.98;;;;;;;;;;4330902;33;20225;-69
2021/04/01 01:57:25;;;;;;;39.80;19.90;;;;;;;;;;4332065;33;20254;-69
2021/04/01 01:59:50;;;;;;;42.30;18.87;;;;;;;;;;4331985;33;20144;-69
2021/04/01 02:02:16;;;;;;;40.70;18.98;;;;;;;;;;4333434;33;20140;-69
2021/04/01 02:04:41;;;;;;;41.58;19.62;;;;;;;;;;4332456;33;20191;-69
2021/04/01 02:07:07;;;;;;;42.38;18.62;;;;;;;;;;4331880;33;20140;-69
2021/04/01 02:09:32;;;;;;;39.72;18.15;;;;;;;;;;4332645;33;20136;-69
2021/04/01 02:12:05;;;;;;;40.63;19.48;;;;;;;;;;4332277;33;20489;-69
2021/04/01 02:14:30;;;;;;;42.38;19.70;;;;;;;;;;4332044;33;20139;-69
2021/04/01 02:16:55;;;;;;;41.95;19.00;;;;;;;;;;4332459;33;20462;-70
2021/04/01 02:19:21;;;;;;;40.10;19.90;;;;;;;;;;4331540;33;20171;-70
2021/04/01 02:21:46;;;;;;;43.50;19.70;;;;;;;;;;4332056;33;20143;-70
2021/04/01 02:24:12;;;;;;;41.67;19.80;;;;;;;;;;4332394;33;20796;-71
2021/04/01 02:26:37;;;;;;;45.72;20.02;;;;;;;;;;4331455;33;20233;-70
2021/04/01 02:29:02;;;;;;;40.08;18.85;;;;;;;;;;4331577;33;20295;-70
2021/04/01 02:31:27;;;;;;;42.35;19.60;;;;;;;;;;4332661;33;20236;-70
2021/04/01 02:33:53;;;;;;;42.92;19.60;;;;;;;;;;4333159;33;20151;-70
2021/04/01 02:36:18;;;;;;;47.55;19.83;;;;;;;;;;4332584;33;20568;-70
2021/04/01 02:38:43;;;;;;;46.88;21.80;;;;;;;;;;4332270;33;20143;-69
2021/04/01 02:41:09;;;;;;;42.72;19.23;;;;;;;;;;4331417;33;20487;-69
2021/04/01 02:43:34;;;;;;;42.25;20.55;;;;;;;;;;4331535;33;20140;-69
2021/04/01 02:46:00;;;;;;;45.83;20.25;;;;;;;;;;4331863;33;20553;-69
2021/04/01 02:48:25;;;;;;;39.60;18.27;;;;;;;;;;4332386;33;20580;-69
2021/04/01 02:50:51;;;;;;;40.50;18.90;;;;;;;;;;4331483;33;20545;-69
2021/04/01 02:53:16;;;;;;;42.20;19.73;;;;;;;;;;4332688;33;20614;-68
2021/04/01 02:55:41;;;;;;;41.28;19.60;;;;;;;;;;4332478;33;20523;-69
2021/04/01 02:58:07;;;;;;;38.92;18.52;;;;;;;;;;4331974;33;20214;-69
2021/04/01 03:00:33;;;;;;;44.50;19.30;;;;;;;;;;4331140;33;20166;-69
2021/04/01 03:03:04;;;;;;;43.90;19.92;;;;;;;;;;4331292;33;20199;-69
2021/04/01 03:05:29;;;;;;;46.35;20.98;;;;;;;;;;4331705;33;20218;-69
2021/04/01 03:07:54;;;;;;;42.50;18.75;;;;;;;;;;4332225;33;20467;-70
2021/04/01 03:10:19;;;;;;;46.10;20.42;;;;;;;;;;4330790;33;20517;-69
2021/04/01 03:12:45;;;;;;;44.47;20.62;;;;;;;;;;4331405;33;20328;-69
2021/04/01 03:15:11;;;;;;;46.72;20.62;;;;;;;;;;4331045;33;20202;-69
2021/04/01 03:17:37;;;;;;;42.08;20.05;;;;;;;;;;4331370;33;20172;-70
2021/04/01 03:20:03;;;;;;;45.45;20.23;;;;;;;;;;4331596;33;20178;-68
2021/04/01 03:22:28;;;;;;;43.78;20.08;;;;;;;;;;4330814;33;20135;-69
2021/04/01 03:24:53;;;;;;;49.92;20.15;;;;;;;;;;4331303;33;20498;-69
2021/04/01 03:27:25;;;;;;;44.72;21.62;;;;;;;;;;4331500;33;20549;-68
2021/04/01 03:30:06;;;;;;;45.83;19.80;;;;;;;;;;4331352;33;20178;-69
2021/04/01 03:32:36;;;;;;;46.42;20.30;;;;;;;;;;4331594;33;20474;-69
2021/04/01 03:35:01;;;;;;;45.45;20.67;;;;;;;;;;4332018;33;20219;-70
2021/04/01 03:37:27;;;;;;;49.20;22.25;;;;;;;;;;4331440;33;20144;-69
2021/04/01 03:39:53;;;;;;;45.90;21.45;;;;;;;;;;4330878;33;20633;-70
2021/04/01 03:42:18;;;;;;;45.90;21.73;;;;;;;;;;4331051;33;20497;-69
2021/04/01 03:44:44;;;;;;;48.63;22.15;;;;;;;;;;4331502;33;20585;-68
2021/04/01 03:47:09;;;;;;;47.83;20.35;;;;;;;;;;4332257;33;20132;-69
2021/04/01 03:49:34;;;;;;;48.08;22.20;;;;;;;;;;4330720;33;20546;-69
2021/04/01 03:52:00;;;;;;;48.75;21.90;;;;;;;;;;4331083;33;20172;-70
2021/04/01 03:54:25;;;;;;;47.35;22.55;;;;;;;;;;4330210;33;20272;-66
2021/04/01 03:56:50;;;;;;;49.70;22.15;;;;;;;;;;4330970;33;20487;-68
2021/04/01 03:59:18;;;;;;;50.95;23.85;;;;;;;;;;4331593;33;20255;-70
2021/04/01 04:07:09;;;;;;;52.53;23.12;;;;;;;;;;4330039;33;20647;-67
2021/04/01 04:14:43;;;;;;;51.28;23.20;;;;;;;;;;4331603;33;20132;-68
2021/04/01 04:17:08;;;;;;;54.30;23.12;;;;;;;;;;4329186;33;20160;-70
2021/04/01 04:19:33;;;;;;;53.67;23.08;;;;;;;;;;4331347;33;20136;-68
2021/04/01 04:21:59;;;;;;;53.67;22.95;;;;;;;;;;4333270;33;20144;-68
2021/04/01 04:24:24;;;;;;;50.33;23.17;;;;;;;;;;4334103;33;20195;-65
2021/04/01 04:26:51;;;;;;;54.88;23.33;;;;;;;;;;4333869;33;20132;-67
2021/04/01 04:29:16;;;;;;;50.83;23.20;;;;;;;;;;4333933;33;20221;-67
2021/04/01 04:31:41;;;;;;;52.67;22.15;;;;;;;;;;4333638;33;20207;-68
2021/04/01 04:34:06;;;;;;;56.33;24.77;;;;;;;;;;4333570;33;20504;-68
2021/04/01 04:36:31;;;;;;;56.58;24.00;;;;;;;;;;4333085;33;20148;-69
2021/04/01 04:38:57;;;;;;;50.83;22.55;;;;;;;;;;4332201;33;20163;-68
2021/04/01 04:41:22;;;;;;;50.53;22.70;;;;;;;;;;4333796;33;20144;-67
2021/04/01 04:43:47;;;;;;;50.38;22.45;;;;;;;;;;4334599;33;20147;-67
2021/04/01 04:46:12;;;;;;;51.47;22.77;;;;;;;;;;4333042;33;20330;-68
2021/04/01 04:48:38;;;;;;;55.90;23.50;;;;;;;;;;4334204;33;20140;-68
2021/04/01 04:51:03;;;;;;;59.75;22.85;;;;;;;;;;4334663;33;20163;-68
2021/04/01 04:53:28;;;;;;;49.63;24.02;;;;;;;;;;4320204;33;20226;-68
2021/04/01 04:58:29;;;;;;;57.30;24.55;;;;;;;;;;4332076;33;20167;-68
2021/04/01 05:01:13;;;;;;;51.90;25.60;;;;;;;;;;4332673;33;20194;-70
2021/04/01 05:09:06;;;;;;;61.30;27.55;;;;;;;;;;4332492;33;20191;-68
2021/04/01 05:11:33;;;;;;;58.08;26.17;;;;;;;;;;4332599;33;20513;-69
2021/04/01 05:13:58;;;;;;;68.40;28.70;;;;;;;;;;4332658;33;20197;-70
2021/04/01 05:16:23;;;;;;;69.55;31.40;;;;;;;;;;4332189;33;20148;-68
2021/04/01 05:18:49;;;;;;;65.12;31.00;;;;;;;;;;4333631;33;20151;-68
2021/04/01 05:21:15;;;;;;;72.30;34.17;;;;;;;;;;4332996;33;20660;-67
2021/04/01 05:23:49;;;;;;;70.65;33.47;;;;;;;;;;4332350;33;20148;-68
2021/04/01 05:28:41;;;;;;;72.40;33.28;;;;;;;;;;4332503;33;20128;-65
2021/04/01 05:31:10;;;;;;;84.10;38.63;;;;;;;;;;4332430;33;20241;-69
2021/04/01 05:33:37;;;;;;;82.53;36.78;;;;;;;;;;4332937;33;20573;-69
2021/04/01 05:36:07;;;;;;;86.50;39.85;;;;;;;;;;4332489;33;20451;-69
2021/04/01 05:38:33;;;;;;;95.43;41.42;;;;;;;;;;4332609;33;20207;-69
2021/04/01 05:40:59;;;;;;;90.60;40.95;;;;;;;;;;4332224;33;20580;-68
2021/04/01 05:43:26;;;;;;;91.43;42.38;;;;;;;;;;4332510;33;20163;-69
2021/04/01 05:45:56;;;;;;;98.28;46.28;;;;;;;;;;4331185;33;20164;-65
2021/04/01 05:48:28;;;;;;;101.45;46.00;;;;;;;;;;4332735;33;20220;-69
2021/04/01 05:56:36;;;;;;;104.40;47.40;;;;;;;;;;4331711;33;20174;-68
2021/04/01 06:04:40;;;;;;;112.82;50.10;;;;;;;;;;4331743;33;20210;-67
2021/04/01 06:07:15;;;;;;;108.50;50.45;;;;;;;;;;4330988;33;20190;-68
2021/04/01 06:09:45;;;;;;;110.75;53.28;;;;;;;;;;4330487;33;20167;-65
2021/04/01 06:12:11;;;;;;;115.12;52.80;;;;;;;;;;4332912;33;20267;-67
2021/04/01 06:14:55;;;;;;;114.00;53.60;;;;;;;;;;4332271;33;20175;-69
2021/04/01 06:17:22;;;;;;;109.20;48.72;;;;;;;;;;4332042;33;20215;-67
2021/04/01 06:19:48;;;;;;;120.72;53.72;;;;;;;;;;4331432;33;20140;-67
2021/04/01 06:22:13;;;;;;;123.07;54.53;;;;;;;;;;4331577;33;20214;-67
2021/04/01 06:24:39;;;;;;;119.22;56.58;;;;;;;;;;4331326;33;20144;-67
2021/04/01 06:27:17;;;;;;;118.80;54.22;;;;;;;;;;4331717;33;20571;-68
2021/04/01 06:30:10;;;;;;;130.85;57.38;;;;;;;;;;4332141;33;20135;-64
2021/04/01 06:32:29;;;;;;;113.78;54.40;;;;;;;;;;4331682;33;20227;-68
2021/04/01 06:34:54;;;;;;;119.70;55.58;;;;;;;;;;4331518;33;20155;-65
2021/04/01 06:37:42;;;;;;;132.57;56.00;;;;;;;;;;4330925;33;20434;-67
2021/04/01 06:40:08;;;;;;;124.05;55.10;;;;;;;;;;4330339;33;20653;-68
2021/04/01 06:42:36;;;;;;;117.70;54.33;;;;;;;;;;4331166;33;20148;-66
2021/04/01 06:45:07;;;;;;;127.45;57.97;;;;;;;;;;4329526;33;20184;-67
2021/04/01 06:47:33;;;;;;;118.37;56.45;;;;;;;;;;4330575;33;20201;-69
2021/04/01 06:50:34;;;;;;;118.80;56.83;;;;;;;;;;4331342;33;20521;-67
2021/04/01 06:52:59;;;;;;;125.15;57.35;;;;;;;;;;4329339;33;20239;-66
2021/04/01 06:55:36;;;;;;;117.13;56.10;;;;;;;;;;4331710;33;20187;-67
2021/04/01 06:58:23;;;;;;;121.45;56.37;;;;;;;;;;4331464;33;20157;-65
2021/04/01 07:01:05;;;;;;;128.07;59.28;;;;;;;;;;4331158;33;20610;-65
2021/04/01 07:03:46;;;;;;;124.45;56.25;;;;;;;;;;4332282;33;20140;-66
2021/04/01 07:06:21;;;;;;;116.78;54.05;;;;;;;;;;4332677;33;20529;-66
2021/04/01 07:08:51;;;;;;;122.60;55.55;;;;;;;;;;4331243;33;20705;-68
2021/04/01 07:11:36;;;;;;;122.28;57.55;;;;;;;;;;4332624;33;20659;-69
2021/04/01 07:14:04;;;;;;;128.23;57.00;;;;;;;;;;4331643;33;20174;-69
2021/04/01 07:17:15;;;;;;;119.43;57.72;;;;;;;;;;4331717;33;20199;-69
2021/04/01 07:36:04;;;;;;;127.75;58.92;;;;;;;;;;4330603;33;20465;-69
2021/04/01 07:46:50;;;;;;;124.93;57.30;;;;;;;;;;4322048;33;20164;-63
2021/04/01 07:49:17;;;;;;;126.55;53.10;;;;;;;;;;4330746;33;20536;-65
2021/04/01 07:54:11;;;;;;;125.03;56.30;;;;;;;;;;4331570;33;20155;-67
2021/04/01 07:59:21;;;;;;;122.75;56.17;;;;;;;;;;4330293;33;20179;-65
2021/04/01 08:04:19;;;;;;;119.15;54.40;;;;;;;;;;4330181;33;20144;-65
2021/04/01 08:06:44;;;;;;;106.43;45.28;;;;;;;;;;4330524;33;20155;-68
2021/04/01 08:09:12;;;;;;;101.18;47.10;;;;;;;;;;4331252;33;20170;-68
2021/04/01 08:11:47;;;;;;;96.03;42.13;;;;;;;;;;4330285;33;20178;-66
2021/04/01 08:14:19;;;;;;;89.75;40.05;;;;;;;;;;4330978;33;20124;-68
2021/04/01 08:19:19;;;;;;;72.62;33.03;;;;;;;;;;4330433;33;20473;-66
2021/04/01 08:21:47;;;;;;;76.12;32.13;;;;;;;;;;4329977;33;20218;-66
2021/04/01 08:24:18;;;;;;;68.57;29.87;;;;;;;;;;4330652;33;20178;-67
2021/04/01 08:26:56;;;;;;;69.03;28.75;;;;;;;;;;4330117;33;20466;-67
2021/04/01 08:34:58;;;;;;;60.60;25.48;;;;;;;;;;4330310;33;20596;-67
2021/04/01 08:37:24;;;;;;;58.20;25.75;;;;;;;;;;4330876;33;20128;-68
2021/04/01 08:39:50;;;;;;;63.83;25.85;;;;;;;;;;4330004;33;20186;-69
2021/04/01 08:42:18;;;;;;;53.85;22.13;;;;;;;;;;4330429;33;20155;-68
2021/04/01 08:45:06;;;;;;;46.00;19.30;;;;;;;;;;4330318;33;20551;-65
2021/04/01 08:47:41;;;;;;;40.55;16.23;;;;;;;;;;4330668;33;20219;-65
2021/04/01 08:50:17;;;;;;;37.75;14.35;;;;;;;;;;4330742;33;20159;-68
2021/04/01 08:52:59;;;;;;;36.15;13.75;;;;;;;;;;4330352;33;20587;-70
2021/04/01 08:55:33;;;;;;;34.42;12.00;;;;;;;;;;4331788;33;20132;-64
2021/04/01 08:58:12;;;;;;;32.42;11.48;;;;;;;;;;4329913;33;20238;-69
2021/04/01 09:00:41;;;;;;;23.15;10.73;;;;;;;;;;4329997;33;20140;-68
2021/04/01 09:03:07;;;;;;;29.37;9.50;;;;;;;;;;4330680;33;20159;-69
2021/04/01 09:05:32;;;;;;;22.70;7.80;;;;;;;;;;4328611;33;20389;-68
2021/04/01 09:08:00;;;;;;;18.83;5.70;;;;;;;;;;4331223;33;20611;-69
2021/04/01 09:10:35;;;;;;;19.70;4.72;;;;;;;;;;4332671;33;20147;-67
2021/04/01 09:13:22;;;;;;;11.82;3.72;;;;;;;;;;4332930;33;20139;-67
2021/04/01 09:15:50;;;;;;;10.75;3.25;;;;;;;;;;4333266;33;20156;-68
2021/04/01 09:18:23;;;;;;;15.27;3.60;;;;;;;;;;4332892;33;20260;-69
2021/04/01 09:20:50;;;;;;;13.98;3.10;;;;;;;;;;4334101;33;20207;-68
2021/04/01 09:23:16;;;;;;;13.10;3.25;;;;;;;;;;4333939;33;20135;-68
2021/04/01 09:25:44;;;;;;;9.20;2.60;;;;;;;;;;4331839;33;20489;-65
2021/04/01 09:28:10;;;;;;;9.30;2.50;;;;;;;;;;4334023;33;20152;-66
2021/04/01 09:30:36;;;;;;;10.57;2.53;;;;;;;;;;4332681;33;20155;-67
2021/04/01 09:33:06;;;;;;;14.18;2.87;;;;;;;;;;4332296;33;20194;-67
2021/04/01 09:35:34;;;;;;;7.18;1.90;;;;;;;;;;4332525;33;20136;-68
2021/04/01 09:38:04;;;;;;;7.47;1.75;;;;;;;;;;4318118;33;20235;-69
2021/04/01 09:40:34;;;;;;;9.68;1.70;;;;;;;;;;4331184;33;20211;-69
2021/04/01 09:43:22;;;;;;;10.13;2.12;;;;;;;;;;4332629;33;20163;-67
2021/04/01 09:45:51;;;;;;;5.53;1.35;;;;;;;;;;4331153;33;20203;-64
2021/04/01 09:48:20;;;;;;;11.23;1.77;;;;;;;;;;4331048;33;20213;-65
2021/04/01 09:50:46;;;;;;;8.88;1.73;;;;;;;;;;4331970;33;20580;-67
2021/04/01 09:53:18;;;;;;;4.45;1.37;;;;;;;;;;4331285;33;20162;-68
2021/04/01 09:55:44;;;;;;;6.65;1.30;;;;;;;;;;4332254;33;20191;-67
2021/04/01 09:58:40;;;;;;;5.93;1.50;;;;;;;;;;4331910;33;20483;-68
2021/04/01 10:03:48;;;;;;;4.62;1.50;;;;;;;;;;4333127;33;20124;-68
2021/04/01 10:06:35;;;;;;;5.60;1.40;;;;;;;;;;4331241;33;20156;-67
2021/04/01 10:09:20;;;;;;;7.60;1.70;;;;;;;;;;4331972;33;20128;-68
2021/04/01 10:11:45;;;;;;;7.10;1.42;;;;;;;;;;4332663;33;20129;-65
2021/04/01 10:14:11;;;;;;;3.72;1.15;;;;;;;;;;4331878;33;20166;-68
2021/04/01 10:16:48;;;;;;;6.75;1.37;;;;;;;;;;4331969;33;20197;-64
2021/04/01 10:19:14;;;;;;;9.40;1.60;;;;;;;;;;4331706;33;20205;-67
2021/04/01 10:21:43;;;;;;;8.07;1.48;;;;;;;;;;4330348;33;20190;-66
2021/04/01 10:24:10;;;;;;;7.43;1.70;;;;;;;;;;4331960;33;20170;-67
2021/04/01 10:26:39;;;;;;;10.10;2.15;;;;;;;;;;4332523;33;20159;-68
2021/04/01 10:29:10;;;;;;;4.78;1.60;;;;;;;;;;4332522;33;20202;-67
2021/04/01 10:32:01;;;;;;;7.00;1.62;;;;;;;;;;4333079;33;20214;-66
2021/04/01 10:34:29;;;;;;;7.07;1.92;;;;;;;;;;4330776;33;20187;-68
2021/04/01 10:36:57;;;;;;;6.45;1.70;;;;;;;;;;4331488;33;20505;-68
2021/04/01 10:39:28;;;;;;;6.60;1.70;;;;;;;;;;4331522;33;20259;-65
2021/04/01 10:41:54;;;;;;;8.57;1.92;;;;;;;;;;4332611;33;20151;-66
2021/04/01 10:44:21;;;;;;;8.30;1.92;;;;;;;;;;4331969;33;20159;-68
2021/04/01 10:46:49;;;;;;;12.68;1.92;;;;;;;;;;4331629;33;20190;-65
2021/04/01 10:49:16;;;;;;;11.75;2.50;;;;;;;;;;4331364;33;20132;-65
2021/04/01 10:51:47;;;;;;;16.98;2.25;;;;;;;;;;4331192;33;20194;-68
2021/04/01 10:54:13;;;;;;;9.65;2.20;;;;;;;;;;4331806;33;20155;-66
2021/04/01 10:56:49;;;;;;;10.27;2.47;;;;;;;;;;4331233;33;20210;-66
2021/04/01 10:59:14;;;;;;;12.50;2.62;;;;;;;;;;4330961;33;20135;-67
2021/04/01 11:01:42;;;;;;;10.75;2.12;;;;;;;;;;4332325;33;20567;-64
2021/04/01 11:04:08;;;;;;;9.48;2.50;;;;;;;;;;4331469;33;20224;-66
2021/04/01 11:06:34;;;;;;;11.63;2.42;;;;;;;;;;4332128;33;20576;-67
2021/04/01 11:08:59;;;;;;;10.43;2.65;;;;;;;;;;4330922;33;20124;-65
2021/04/01 11:11:50;;;;;;;12.57;2.30;;;;;;;;;;4330383;33;20128;-68
2021/04/01 11:14:15;;;;;;;11.18;2.40;;;;;;;;;;4330154;33;20136;-66
2021/04/01 11:16:41;;;;;;;11.90;2.65;;;;;;;;;;4331068;33;20542;-68
2021/04/01 11:19:07;;;;;;;11.23;2.33;;;;;;;;;;4330637;33;20538;-65
2021/04/01 11:21:33;;;;;;;11.25;2.30;;;;;;;;;;4329488;33;20151;-66
2021/04/01 11:23:58;;;;;;;12.07;2.65;;;;;;;;;;4330666;33;20139;-67
2021/04/01 11:26:27;;;;;;;10.93;2.60;;;;;;;;;;4330348;33;20482;-67
2021/04/01 11:28:53;;;;;;;11.60;2.22;;;;;;;;;;4331796;33;20266;-68
2021/04/01 11:31:22;;;;;;;12.30;2.45;;;;;;;;;;4329704;33;20132;-65
2021/04/01 11:33:50;;;;;;;17.12;2.70;;;;;;;;;;4330760;33;20144;-69
2021/04/01 11:36:18;;;;;;;13.93;2.60;;;;;;;;;;4330956;33;20569;-65
2021/04/01 11:38:48;;;;;;;12.15;3.42;;;;;;;;;;4330478;33;20206;-66
2021/04/01 11:41:15;;;;;;;9.05;2.67;;;;;;;;;;4330610;33;20132;-67
2021/04/01 11:43:40;;;;;;;12.60;2.75;;;;;;;;;;4329742;33;20164;-64
2021/04/01 11:46:12;;;;;;;12.88;2.80;;;;;;;;;;4330629;33;20519;-66
2021/04/01 11:48:38;;;;;;;15.40;3.08;;;;;;;;;;4329899;33;20163;-67
2021/04/01 11:51:04;;;;;;;9.82;2.40;;;;;;;;;;4330300;33;20131;-67
2021/04/01 11:53:29;;;;;;;9.23;2.15;;;;;;;;;;4331432;33;20219;-67
2021/04/01 11:55:55;;;;;;;13.75;2.12;;;;;;;;;;4329073;33;20501;-68
2021/04/01 11:58:21;;;;;;;13.95;2.78;;;;;;;;;;4330253;33;20144;-67
2021/04/01 12:00:48;;;;;;;10.15;2.08;;;;;;;;;;4331214;33;20189;-65
2021/04/01 12:03:29;;;;;;;13.25;2.60;;;;;;;;;;4329876;33;20132;-65
2021/04/01 12:05:55;;;;;;;8.98;2.45;;;;;;;;;;4331090;33;20180;-64
2021/04/01 12:08:21;;;;;;;16.02;2.40;;;;;;;;;;4330397;33;20135;-68
2021/04/01 12:10:57;;;;;;;8.00;2.28;;;;;;;;;;4330538;33;20214;-67
2021/04/01 12:13:24;;;;;;;6.95;2.12;;;;;;;;;;4330368;33;20226;-68
2021/04/01 12:15:49;;;;;;;12.75;2.80;;;;;;;;;;4328618;33;20612;-67
2021/04/01 12:18:14;;;;;;;10.48;2.12;;;;;;;;;;4330588;33;20151;-64
2021/04/01 12:20:40;;;;;;;8.90;2.17;;;;;;;;;;4330036;33;20128;-69
2021/04/01 12:23:12;;;;;;;8.65;2.90;;;;;;;;;;4330135;33;20259;-66
2021/04/01 12:25:37;;;;;;;11.65;2.72;;;;;;;;;;4331604;33;20166;-68
2021/04/01 12:28:03;;;;;;;11.12;3.03;;;;;;;;;;4330885;33;20124;-66
2021/04/01 12:30:30;;;;;;;10.75;2.33;;;;;;;;;;4329443;33;20136;-67
2021/04/01 12:33:08;;;;;;;6.78;2.00;;;;;;;;;;4330098;33;20480;-66
2021/04/01 12:35:34;;;;;;;9.60;2.37;;;;;;;;;;4330613;33;20127;-69
2021/04/01 12:38:03;;;;;;;9.13;2.30;;;;;;;;;;4330045;33;20132;-67
2021/04/01 12:40:28;;;;;;;10.57;2.00;;;;;;;;;;4330188;33;20158;-69
2021/04/01 12:43:02;;;;;;;7.80;1.95;;;;;;;;;;4331151;33;20160;-66
2021/04/01 12:45:29;;;;;;;12.57;2.25;;;;;;;;;;4331300;33;20234;-67
2021/04/01 12:48:07;;;;;;;8.52;2.10;;;;;;;;;;4333047;33;20521;-64
2021/04/01 12:50:33;;;;;;;9.65;2.20;;;;;;;;;;4333366;33;20139;-66
2021/04/01 12:52:58;;;;;;;8.60;1.90;;;;;;;;;;4333311;33;20199;-68
2021/04/01 12:58:03;;;;;;;7.72;2.25;;;;;;;;;;4333847;33;20162;-70
2021/04/01 13:01:18;;;;;;;6.90;1.65;;;;;;;;;;4333301;33;20132;-66
2021/04/01 13:03:14;;;;;;;7.32;1.70;;;;;;;;;;4327312;33;20160;-67
2021/04/01 13:05:46;;;;;;;10.45;2.10;;;;;;;;;;4332275;33;20234;-68
2021/04/01 13:10:43;;;;;;;9.77;2.12;;;;;;;;;;4333583;33;20120;-69
2021/04/01 13:13:09;;;;;;;9.48;2.17;;;;;;;;;;4333266;33;20132;-68
2021/04/01 13:15:34;;;;;;;7.68;1.60;;;;;;;;;;4332394;33;20195;-68
2021/04/01 13:17:59;;;;;;;8.05;1.67;;;;;;;;;;4333061;33;20530;-65
2021/04/01 13:20:25;;;;;;;10.55;1.90;;;;;;;;;;4332168;33;20167;-64
2021/04/01 13:25:31;;;;;;;8.48;1.60;;;;;;;;;;4332811;33;20203;-67
2021/04/01 13:28:01;;;;;;;8.18;2.00;;;;;;;;;;4332134;33;20167;-67
2021/04/01 13:30:28;;;;;;;9.45;2.00;;;;;;;;;;4333067;33;20297;-66
2021/04/01 13:35:37;;;;;;;10.15;2.20;;;;;;;;;;4332872;33;20156;-67
2021/04/01 13:38:07;;;;;;;8.32;2.40;;;;;;;;;;4332928;33;20441;-67
2021/04/01 13:40:37;;;;;;;8.95;1.80;;;;;;;;;;4333289;33;20139;-68
2021/04/01 13:43:03;;;;;;;8.82;1.90;;;;;;;;;;4332780;33;20132;-66
2021/04/01 13:45:28;;;;;;;7.80;1.83;;;;;;;;;;4325964;33;20183;-67
2021/04/01 13:48:36;;;;;;;8.93;1.92;;;;;;;;;;4330538;33;20210;-65
2021/04/01 13:50:55;;;;;;;7.60;1.85;;;;;;;;;;4324945;33;20222;-67
2021/04/01 13:53:44;;;;;;;9.35;2.15;;;;;;;;;;4329890;33;20151;-66
2021/04/01 13:56:18;;;;;;;12.65;2.40;;;;;;;;;;4330466;33;20486;-67
2021/04/01 14:04:22;;;;;;;11.02;2.05;;;;;;;;;;4332000;33;20208;-69
2021/04/01 14:09:35;;;;;;;11.20;1.70;;;;;;;;;;4332240;33;20599;-69
2021/04/01 14:12:02;;;;;;;8.25;1.75;;;;;;;;;;4331787;33;20132;-64
2021/04/01 14:14:28;;;;;;;12.85;2.17;;;;;;;;;;4331526;33;20159;-68
2021/04/01 14:16:54;;;;;;;7.87;2.10;;;;;;;;;;4331224;33;20215;-68
2021/04/01 14:19:21;;;;;;;10.13;1.83;;;;;;;;;;4332888;33;20152;-68
2021/04/01 14:21:50;;;;;;;10.98;2.10;;;;;;;;;;4331432;33;20174;-68
2021/04/01 14:24:20;;;;;;;11.40;1.87;;;;;;;;;;4330012;33;20582;-69
2021/04/01 14:26:51;;;;;;;10.55;1.90;;;;;;;;;;4331380;33;20116;-68
2021/04/01 14:29:16;;;;;;;13.18;2.30;;;;;;;;;;4331233;33;20267;-67
2021/04/01 14:31:41;;;;;;;10.13;2.03;;;;;;;;;;4331064;33;20136;-69
2021/04/01 14:34:07;;;;;;;13.88;1.98;;;;;;;;;;4330988;33;20272;-69
2021/04/01 14:36:32;;;;;;;10.25;2.05;;;;;;;;;;4333023;33;20136;-68
2021/04/01 14:38:58;;;;;;;10.85;2.15;;;;;;;;;;4331052;33;20152;-67
2021/04/01 14:41:38;;;;;;;12.95;2.08;;;;;;;;;;4330907;33;20207;-69
2021/04/01 14:44:08;;;;;;;9.50;1.98;;;;;;;;;;4332866;33;20518;-66
2021/04/01 14:46:34;;;;;;;11.25;2.62;;;;;;;;;;4330520;33;20251;-66
2021/04/01 14:49:03;;;;;;;8.45;2.08;;;;;;;;;;4332257;33;20150;-70
2021/04/01 14:51:29;;;;;;;10.25;2.10;;;;;;;;;;4331026;33;20163;-67
2021/04/01 14:54:00;;;;;;;13.90;2.40;;;;;;;;;;4331913;33;20178;-68
2021/04/01 14:56:28;;;;;;;10.50;2.10;;;;;;;;;;4330870;33;20215;-67
2021/04/01 14:58:55;;;;;;;14.60;2.20;;;;;;;;;;4330418;33;20191;-65
2021/04/01 15:01:23;;;;;;;8.02;2.20;;;;;;;;;;4331021;33;20566;-65
2021/04/01 15:03:48;;;;;;;14.43;2.17;;;;;;;;;;4330917;33;20246;-65
2021/04/01 15:06:14;;;;;;;11.32;2.22;;;;;;;;;;4330080;33;20526;-66
2021/04/01 15:08:40;;;;;;;10.70;1.98;;;;;;;;;;4331245;33;20203;-67
2021/04/01 15:11:05;;;;;;;9.75;2.08;;;;;;;;;;4329062;33;20156;-65
2021/04/01 15:13:31;;;;;;;12.35;1.90;;;;;;;;;;4330561;33;20135;-68
2021/04/01 15:15:56;;;;;;;13.60;2.30;;;;;;;;;;4330122;33;20208;-65
2021/04/01 15:18:25;;;;;;;14.87;2.55;;;;;;;;;;4331006;33;20131;-70
2021/04/01 15:20:51;;;;;;;11.30;2.42;;;;;;;;;;4330544;33;20207;-69
2021/04/01 15:23:16;;;;;;;9.70;2.03;;;;;;;;;;4332017;33;20267;-66
2021/04/01 15:25:41;;;;;;;8.40;1.85;;;;;;;;;;4330105;33;20152;-66
2021/04/01 15:28:07;;;;;;;12.48;2.08;;;;;;;;;;4329543;33;20264;-66
2021/04/01 15:30:32;;;;;;;11.50;2.20;;;;;;;;;;4330448;33;20294;-68
2021/04/01 15:32:59;;;;;;;9.45;1.70;;;;;;;;;;4329163;33;20222;-69
2021/04/01 15:35:25;;;;;;;9.30;2.10;;;;;;;;;;4327963;33;20517;-67
2021/04/01 15:37:50;;;;;;;12.98;2.35;;;;;;;;;;4340630;33;20271;-64
2021/04/01 15:40:15;;;;;;;8.95;2.20;;;;;;;;;;4331142;33;20159;-68
2021/04/01 15:42:40;;;;;;;9.38;2.03;;;;;;;;;;4330676;33;20260;-65
2021/04/01 15:45:08;;;;;;;12.48;2.15;;;;;;;;;;4330498;33;20132;-66
2021/04/01 15:47:33;;;;;;;8.90;1.98;;;;;;;;;;4331090;33;20124;-64
2021/04/01 15:49:58;;;;;;;14.43;2.90;;;;;;;;;;4331731;33;20456;-68
2021/04/01 15:52:23;;;;;;;14.10;2.40;;;;;;;;;;4330684;33;20620;-68
2021/04/01 15:54:49;;;;;;;9.13;2.08;;;;;;;;;;4331272;33;20229;-68
2021/04/01 15:57:14;;;;;;;8.40;1.98;;;;;;;;;;4331540;33;20123;-66
2021/04/01 15:59:39;;;;;;;10.40;2.28;;;;;;;;;;4331586;33;20124;-65
2021/04/01 16:02:04;;;;;;;10.53;1.93;;;;;;;;;;4331228;33;20124;-67
2021/04/01 16:04:29;;;;;;;10.38;2.22;;;;;;;;;;4331198;33;20299;-66
2021/04/01 16:06:55;;;;;;;11.00;2.40;;;;;;;;;;4330032;33;20159;-67